createdAt,value
2018-11-02T00:01:28.888Z,11.07
2018-11-02T00:03:05.072Z,13.47
2018-11-02T00:04:39.972Z,14.83
2018-11-02T00:06:14.888Z,10.60
2018-11-02T00:08:04.653Z,9.73
2018-11-02T00:09:54.443Z,10.93
2018-11-02T00:11:29.349Z,12.57
2018-11-02T00:13:04.309Z,14.57
2018-11-02T00:14:39.211Z,9.77
2018-11-02T00:16:14.121Z,13.00
2018-11-02T00:17:49.095Z,10.57
2018-11-02T00:19:29.415Z,8.77
2018-11-02T00:21:04.518Z,10.87
2018-11-02T00:22:39.391Z,9.43
2018-11-02T00:24:14.311Z,10.10
2018-11-02T00:25:49.383Z,12.40
2018-11-02T00:27:24.344Z,9.87
2018-11-02T00:28:59.272Z,10.40
2018-11-02T00:30:34.159Z,14.03
2018-11-02T00:32:09.204Z,10.33
2018-11-02T00:33:44.167Z,10.20
2018-11-02T00:35:19.018Z,8.13
2018-11-02T00:36:54.067Z,10.77
2018-11-02T00:38:29.099Z,11.13
2018-11-02T00:40:04.004Z,10.87
2018-11-02T00:41:39.092Z,13.40
2018-11-02T00:43:14.024Z,11.87
2018-11-02T00:44:48.979Z,7.57
2018-11-02T00:46:23.922Z,12.87
2018-11-02T00:47:58.800Z,16.00
2018-11-02T00:49:33.760Z,12.90
2018-11-02T00:51:08.655Z,10.73
2018-11-02T00:52:44.533Z,11.47
2018-11-02T00:54:19.535Z,12.50
2018-11-02T00:55:54.411Z,10.13
2018-11-02T00:57:29.343Z,11.63
2018-11-02T00:59:04.367Z,12.53
2018-11-02T01:00:39.304Z,10.03
2018-11-02T01:02:14.238Z,12.30
2018-11-02T01:03:49.224Z,12.93
2018-11-02T01:05:24.237Z,12.57
2018-11-02T01:06:59.188Z,11.17
2018-11-02T01:08:34.117Z,12.40
2018-11-02T01:10:09.011Z,13.83
2018-11-02T01:11:44.080Z,9.53
2018-11-02T01:13:18.960Z,11.23
2018-11-02T01:14:53.835Z,14.03
2018-11-02T01:16:28.831Z,12.87
2018-11-02T01:18:03.763Z,11.53
2018-11-02T01:19:38.726Z,14.07
2018-11-02T01:21:13.612Z,12.07
2018-11-02T01:22:48.503Z,10.57
2018-11-02T01:24:23.588Z,12.10
2018-11-02T01:25:58.471Z,11.77
2018-11-02T01:27:33.395Z,11.73
2018-11-02T01:29:08.344Z,13.83
2018-11-02T01:30:43.274Z,11.83
2018-11-02T01:32:18.174Z,13.07
2018-11-02T01:33:53.079Z,11.87
2018-11-02T01:35:28.007Z,12.90
2018-11-02T01:37:02.894Z,11.50
2018-11-02T01:38:38.006Z,11.97
2018-11-02T01:40:13.309Z,16.57
2018-11-02T01:41:48.334Z,11.93
2018-11-02T01:43:23.330Z,11.50
2018-11-02T01:44:58.261Z,15.37
2018-11-02T01:46:33.160Z,10.63
2018-11-02T01:48:08.070Z,10.77
2018-11-02T01:49:43.039Z,9.57
2018-11-02T01:51:17.947Z,13.13
2018-11-02T01:52:52.824Z,11.70
2018-11-02T01:54:27.762Z,11.90
2018-11-02T01:56:04.442Z,16.57
2018-11-02T01:57:39.322Z,13.00
2018-11-02T01:59:14.371Z,12.23
2018-11-02T02:00:49.310Z,14.50
2018-11-02T02:02:24.224Z,11.27
2018-11-02T02:03:59.115Z,14.33
2018-11-02T02:05:34.101Z,11.17
2018-11-02T02:07:08.996Z,10.63
2018-11-02T02:08:44.022Z,11.83
2018-11-02T02:10:18.954Z,12.40
2018-11-02T02:11:53.930Z,14.97
2018-11-02T02:13:28.798Z,12.00
2018-11-02T02:15:03.828Z,13.43
2018-11-02T02:16:38.755Z,10.93
2018-11-02T02:18:13.640Z,10.43
2018-11-02T02:19:48.652Z,14.57
2018-11-02T02:21:23.599Z,14.40
2018-11-02T02:22:58.516Z,16.43
2018-11-02T02:24:33.480Z,9.93
2018-11-02T02:26:08.402Z,11.57
2018-11-02T02:27:43.337Z,15.27
2018-11-02T02:29:18.255Z,13.83
2018-11-02T02:30:53.168Z,12.60
2018-11-02T02:32:28.050Z,11.70
2018-11-02T02:34:03.036Z,14.27
2018-11-02T02:35:38.059Z,11.87
2018-11-02T02:37:12.956Z,11.53
2018-11-02T02:38:47.978Z,10.97
2018-11-02T02:40:22.863Z,11.73
2018-11-02T02:41:57.754Z,11.10
2018-11-02T02:43:32.622Z,11.77
2018-11-02T02:45:08.291Z,10.80
2018-11-02T02:46:43.187Z,12.23
2018-11-02T02:48:18.082Z,10.83
2018-11-02T02:49:53.079Z,14.63
2018-11-02T02:51:28.089Z,13.07
2018-11-02T02:53:03.008Z,13.20
2018-11-02T02:54:37.982Z,11.57
2018-11-02T02:56:12.850Z,12.37
2018-11-02T02:57:47.795Z,15.97
2018-11-02T02:59:22.674Z,13.60
2018-11-02T03:00:57.558Z,11.13
2018-11-02T03:02:32.634Z,11.97
2018-11-02T03:04:07.498Z,12.20
2018-11-02T03:05:42.536Z,11.50
2018-11-02T03:07:17.555Z,11.13
2018-11-02T03:08:52.444Z,14.43
2018-11-02T03:10:27.422Z,12.40
2018-11-02T03:12:02.241Z,13.57
2018-11-02T03:13:37.180Z,11.40
2018-11-02T03:15:12.014Z,11.83
2018-11-02T03:16:46.888Z,15.73
2018-11-02T03:18:21.815Z,13.90
2018-11-02T03:19:56.818Z,11.53
2018-11-02T03:21:31.706Z,14.20
2018-11-02T03:23:06.592Z,16.87
2018-11-02T03:24:41.499Z,14.47
2018-11-02T03:26:16.353Z,15.90
2018-11-02T03:27:51.233Z,13.27
2018-11-02T03:29:26.107Z,15.50
2018-11-02T03:31:01.014Z,12.20
2018-11-02T03:32:35.900Z,16.27
2018-11-02T03:34:10.844Z,14.37
2018-11-02T03:35:45.769Z,10.87
2018-11-02T03:37:20.699Z,10.50
2018-11-02T03:38:55.562Z,13.13
2018-11-02T03:40:30.630Z,14.23
2018-11-02T03:42:06.371Z,11.30
2018-11-02T03:43:41.259Z,14.30
2018-11-02T03:45:16.178Z,10.57
2018-11-02T03:46:51.085Z,11.13
2018-11-02T03:48:25.966Z,10.27
2018-11-02T03:50:01.102Z,12.00
2018-11-02T03:51:36.082Z,10.47
2018-11-02T03:53:10.990Z,11.87
2018-11-02T03:54:45.909Z,12.00
2018-11-02T03:56:20.853Z,13.97
2018-11-02T03:57:55.783Z,11.83
2018-11-02T03:59:30.663Z,10.30
2018-11-02T04:01:05.880Z,12.93
2018-11-02T04:02:40.844Z,10.90
2018-11-02T04:04:15.792Z,13.07
2018-11-02T04:05:50.744Z,12.43
2018-11-02T04:07:25.712Z,12.30
2018-11-02T04:09:00.648Z,14.43
2018-11-02T04:10:35.528Z,11.83
2018-11-02T04:12:10.402Z,13.77
2018-11-02T04:13:45.543Z,12.83
2018-11-02T04:15:20.564Z,14.37
2018-11-02T04:16:55.430Z,15.07
2018-11-02T04:18:30.720Z,11.57
2018-11-02T04:20:06.832Z,11.53
2018-11-02T04:21:46.516Z,11.17
2018-11-02T04:23:21.390Z,14.27
2018-11-02T04:24:56.264Z,11.53
2018-11-02T04:26:31.149Z,13.47
2018-11-02T04:28:06.349Z,10.50
2018-11-02T04:29:41.238Z,13.37
2018-11-02T04:31:16.180Z,11.70
2018-11-02T04:32:51.081Z,14.83
2018-11-02T04:34:25.947Z,15.40
2018-11-02T04:36:00.830Z,15.53
2018-11-02T04:37:35.710Z,13.77
2018-11-02T04:39:12.314Z,12.93
2018-11-02T04:40:47.187Z,12.07
2018-11-02T04:42:22.187Z,14.37
2018-11-02T04:43:57.265Z,11.77
2018-11-02T04:45:38.266Z,16.47
2018-11-02T04:47:13.215Z,11.93
2018-11-02T04:48:48.095Z,12.90
2018-11-02T04:50:23.004Z,12.13
2018-11-02T04:51:57.899Z,16.77
2018-11-02T04:53:32.867Z,12.20
2018-11-02T04:55:07.813Z,13.10
2018-11-02T04:56:42.712Z,13.77
2018-11-02T04:58:17.662Z,11.53
2018-11-02T04:59:52.574Z,14.17
2018-11-02T05:01:27.548Z,8.87
2018-11-02T05:03:03.087Z,13.33
2018-11-02T05:04:38.001Z,11.00
2018-11-02T05:06:14.226Z,11.87
2018-11-02T05:07:49.459Z,10.60
2018-11-02T05:09:26.808Z,10.43
2018-11-02T05:11:02.210Z,10.97
2018-11-02T05:12:41.238Z,10.63
2018-11-02T05:14:17.458Z,10.63
2018-11-02T05:15:52.409Z,12.73
2018-11-02T05:17:27.324Z,15.23
2018-11-02T05:19:02.247Z,11.00
2018-11-02T05:20:37.145Z,10.87
2018-11-02T05:22:12.115Z,8.80
2018-11-02T05:23:46.976Z,12.23
2018-11-02T05:25:21.874Z,13.20
2018-11-02T05:26:56.796Z,12.00
2018-11-02T05:28:31.766Z,11.40
2018-11-02T05:30:07.852Z,15.97
2018-11-02T05:31:42.871Z,11.80
2018-11-02T05:33:17.783Z,11.77
2018-11-02T05:34:52.735Z,10.07
2018-11-02T05:36:27.615Z,12.93
2018-11-02T05:38:02.575Z,11.57
2018-11-02T05:39:37.561Z,11.53
2018-11-02T05:41:12.339Z,14.10
2018-11-02T05:42:47.370Z,13.73
2018-11-02T05:44:22.236Z,15.97
2018-11-02T05:45:57.180Z,19.73
2018-11-02T05:47:32.091Z,16.77
2018-11-02T05:49:07.082Z,21.37
2018-11-02T05:50:42.062Z,19.07
2018-11-02T05:52:17.155Z,14.80
2018-11-02T05:53:52.204Z,14.77
2018-11-02T05:55:27.158Z,15.63
2018-11-02T05:57:02.211Z,11.67
2018-11-02T05:58:37.182Z,9.23
2018-11-02T06:00:12.667Z,12.80
2018-11-02T06:01:47.694Z,14.67
2018-11-02T06:03:22.761Z,15.27
2018-11-02T06:04:58.347Z,9.73
2018-11-02T06:06:33.235Z,10.90
2018-11-02T06:08:08.121Z,9.60
2018-11-02T06:09:43.042Z,12.63
2018-11-02T06:11:17.922Z,10.53
2018-11-02T06:12:52.814Z,11.17
2018-11-02T06:14:27.719Z,17.00
2018-11-02T06:16:02.623Z,20.30
2018-11-02T06:17:37.545Z,9.20
2018-11-02T06:19:12.438Z,11.77
2018-11-02T06:20:47.301Z,10.47
2018-11-02T06:22:22.257Z,13.13
2018-11-02T06:23:57.182Z,12.03
2018-11-02T06:25:32.069Z,14.20
2018-11-02T06:27:07.023Z,12.47
2018-11-02T06:28:42.047Z,13.40
2018-11-02T06:30:16.923Z,12.87
2018-11-02T06:31:51.799Z,15.23
2018-11-02T06:33:26.823Z,12.37
2018-11-02T06:35:01.748Z,12.53
2018-11-02T06:36:36.950Z,11.90
2018-11-02T06:38:11.925Z,14.43
2018-11-02T06:39:46.834Z,14.47
2018-11-02T06:41:21.758Z,14.63
2018-11-02T06:42:56.667Z,12.80
2018-11-02T06:44:31.607Z,15.37
2018-11-02T06:46:06.786Z,14.57
2018-11-02T06:47:41.759Z,13.47
2018-11-02T06:49:16.756Z,10.20
2018-11-02T06:50:51.672Z,10.10
2018-11-02T06:52:26.511Z,10.27
2018-11-02T06:54:01.396Z,11.17
2018-11-02T06:55:36.254Z,14.07
2018-11-02T06:57:11.297Z,15.40
2018-11-02T06:58:46.126Z,13.03
2018-11-02T07:00:21.104Z,10.90
2018-11-02T07:01:55.955Z,15.67
2018-11-02T07:03:30.851Z,13.43
2018-11-02T07:05:05.947Z,12.23
2018-11-02T07:06:40.959Z,11.27
2018-11-02T07:08:15.940Z,12.47
2018-11-02T07:09:50.806Z,10.17
2018-11-02T07:11:25.684Z,11.73
2018-11-02T07:13:00.746Z,11.00
2018-11-02T07:14:35.627Z,14.50
2018-11-02T07:16:10.628Z,12.80
2018-11-02T07:17:45.566Z,12.40
2018-11-02T07:19:20.541Z,12.57
2018-11-02T07:20:55.406Z,10.27
2018-11-02T07:22:30.367Z,14.13
2018-11-02T07:24:05.238Z,12.23
2018-11-02T07:25:40.117Z,13.27
2018-11-02T07:27:15.207Z,13.53
2018-11-02T07:28:50.157Z,15.23
2018-11-02T07:30:25.026Z,17.07
2018-11-02T07:31:59.939Z,12.73
2018-11-02T07:33:34.850Z,13.33
2018-11-02T07:35:10.603Z,13.00
2018-11-02T07:36:45.539Z,17.67
2018-11-02T07:38:20.592Z,15.37
2018-11-02T07:39:55.505Z,16.63
2018-11-02T07:41:30.577Z,23.73
2018-11-02T07:43:05.527Z,20.73
2018-11-02T07:44:40.463Z,17.97
2018-11-02T07:46:15.494Z,28.57
2018-11-02T07:47:50.649Z,28.07
2018-11-02T07:49:25.694Z,24.50
2018-11-02T07:51:00.668Z,19.43
2018-11-02T07:52:35.642Z,18.17
2018-11-02T07:54:10.631Z,13.93
2018-11-02T07:55:45.550Z,11.90
2018-11-02T07:57:20.570Z,15.90
2018-11-02T07:58:55.638Z,16.77
2018-11-02T08:00:30.532Z,15.43
2018-11-02T08:02:05.615Z,16.87
2018-11-02T08:03:40.566Z,15.00
2018-11-02T08:05:16.033Z,12.17
2018-11-02T08:06:51.104Z,12.50
2018-11-02T08:08:26.030Z,13.80
2018-11-02T08:10:01.016Z,16.07
2018-11-02T08:11:36.372Z,15.10
2018-11-02T08:13:11.851Z,14.70
2018-11-02T08:14:46.914Z,13.47
2018-11-02T08:16:21.815Z,17.10
2018-11-02T08:17:57.029Z,11.47
2018-11-02T08:19:32.044Z,9.50
2018-11-02T08:21:06.891Z,12.93
2018-11-02T08:22:42.670Z,8.80
2018-11-02T08:24:17.643Z,12.53
2018-11-02T08:25:52.552Z,18.80
2018-11-02T08:27:27.536Z,26.48
2018-11-02T08:29:02.546Z,33.63
2018-11-02T08:30:37.539Z,20.73
2018-11-02T08:32:12.629Z,12.77
2018-11-02T08:33:47.536Z,16.67
2018-11-02T08:35:22.486Z,13.27
2018-11-02T08:36:57.449Z,13.23
2018-11-02T08:38:32.358Z,17.13
2018-11-02T08:40:08.187Z,15.47
2018-11-02T08:41:43.110Z,11.70
2018-11-02T08:43:18.007Z,14.30
2018-11-02T08:44:52.891Z,12.17
2018-11-02T08:46:28.375Z,17.47
2018-11-02T08:48:03.232Z,17.50
2018-11-02T08:49:38.176Z,18.53
2018-11-02T08:51:13.051Z,16.33
2018-11-02T08:52:47.971Z,16.23
2018-11-02T08:54:22.915Z,15.17
2018-11-02T08:55:57.867Z,18.07
2018-11-02T08:57:32.763Z,15.73
2018-11-02T08:59:07.845Z,18.43
2018-11-02T09:00:42.678Z,13.20
2018-11-02T09:02:17.586Z,19.23
2018-11-02T09:03:52.718Z,12.10
2018-11-02T09:05:27.645Z,17.50
2018-11-02T09:07:02.621Z,19.40
2018-11-02T09:08:37.515Z,11.57
2018-11-02T09:10:12.865Z,11.67
2018-11-02T09:11:47.768Z,17.83
2018-11-02T09:13:22.676Z,14.40
2018-11-02T09:14:57.581Z,12.33
2018-11-02T09:16:32.582Z,12.10
2018-11-02T09:18:07.663Z,14.60
2018-11-02T09:19:42.663Z,28.37
2018-11-02T09:21:17.563Z,13.87
2018-11-02T09:22:52.647Z,34.77
2018-11-02T09:24:27.575Z,20.37
2018-11-02T09:26:02.512Z,11.00
2018-11-02T09:27:37.467Z,17.10
2018-11-02T09:29:12.342Z,12.97
2018-11-02T09:30:47.422Z,10.87
2018-11-02T09:32:22.384Z,16.13
2018-11-02T09:33:57.394Z,18.43
2018-11-02T09:35:32.375Z,17.43
2018-11-02T09:37:07.312Z,18.37
2018-11-02T09:38:42.267Z,16.60
2018-11-02T09:40:17.264Z,14.60
2018-11-02T09:41:52.113Z,14.87
2018-11-02T09:43:27.318Z,13.37
2018-11-02T09:45:02.308Z,16.70
2018-11-02T09:46:37.506Z,15.63
2018-11-02T09:48:12.467Z,12.57
2018-11-02T09:49:47.727Z,16.37
2018-11-02T09:51:22.870Z,30.23
2018-11-02T09:52:57.715Z,34.33
2018-11-02T09:54:32.639Z,16.83
2018-11-02T09:56:07.527Z,16.27
2018-11-02T09:57:43.302Z,28.40
2018-11-02T09:59:18.214Z,19.73
2018-11-02T10:00:53.281Z,19.03
2018-11-02T10:02:28.177Z,17.57
2018-11-02T10:04:03.087Z,19.87
2018-11-02T10:05:38.063Z,13.77
2018-11-02T10:07:13.079Z,15.87
2018-11-02T10:08:48.090Z,13.77
2018-11-02T10:10:23.018Z,16.03
2018-11-02T10:11:57.986Z,14.60
2018-11-02T10:13:32.878Z,13.93
2018-11-02T10:15:10.281Z,26.50
2018-11-02T10:16:45.295Z,13.47
2018-11-02T10:18:20.204Z,17.07
2018-11-02T10:19:55.133Z,17.73
2018-11-02T10:21:30.072Z,27.03
2018-11-02T10:23:05.142Z,16.57
2018-11-02T10:24:40.028Z,15.47
2018-11-02T10:26:14.978Z,18.33
2018-11-02T10:27:50.021Z,17.77
2018-11-02T10:29:24.951Z,15.83
2018-11-02T10:30:59.967Z,22.17
2018-11-02T10:32:34.911Z,23.50
2018-11-02T10:34:09.834Z,15.00
2018-11-02T10:35:44.908Z,18.93
2018-11-02T10:37:19.766Z,15.80
2018-11-02T10:38:55.291Z,18.37
2018-11-02T10:40:32.210Z,24.27
2018-11-02T10:42:08.926Z,17.90
2018-11-02T10:43:43.843Z,17.73
2018-11-02T10:45:18.869Z,17.27
2018-11-02T10:46:53.874Z,18.27
2018-11-02T10:48:29.823Z,14.83
2018-11-02T10:50:05.210Z,17.63
2018-11-02T10:51:40.204Z,63.87
2018-11-02T10:53:16.179Z,16.67
2018-11-02T10:54:51.186Z,14.90
2018-11-02T10:56:26.344Z,18.47
2018-11-02T10:58:01.290Z,15.07
2018-11-02T10:59:36.193Z,22.60
2018-11-02T11:01:16.512Z,19.37
2018-11-02T11:02:51.439Z,19.30
2018-11-02T11:04:26.349Z,16.30
2018-11-02T11:06:01.302Z,17.93
2018-11-02T11:07:36.250Z,16.03
2018-11-02T11:09:12.588Z,16.63
2018-11-02T11:10:47.708Z,16.23
2018-11-02T11:12:22.779Z,15.17
2018-11-02T11:13:57.671Z,14.23
2018-11-02T11:15:32.795Z,15.47
2018-11-02T11:17:07.720Z,17.20
2018-11-02T11:18:42.621Z,16.23
2018-11-02T11:20:17.640Z,14.57
2018-11-02T11:21:52.626Z,20.27
2018-11-02T11:23:27.543Z,21.43
2018-11-02T11:25:02.690Z,19.17
2018-11-02T11:26:38.334Z,18.27
2018-11-02T11:28:13.295Z,15.37
2018-11-02T11:29:48.509Z,15.97
2018-11-02T11:31:23.682Z,20.13
2018-11-02T11:32:58.604Z,16.10
2018-11-02T11:34:33.674Z,19.10
2018-11-02T11:36:08.907Z,16.90
2018-11-02T11:37:48.083Z,16.07
2018-11-02T11:39:23.381Z,19.40
2018-11-02T11:40:58.306Z,17.80
2018-11-02T11:42:33.192Z,16.73
2018-11-02T11:44:08.726Z,17.27
2018-11-02T11:45:43.925Z,21.10
2018-11-02T11:47:18.972Z,18.37
2018-11-02T11:48:54.151Z,21.10
2018-11-02T11:50:29.011Z,17.63
2018-11-02T11:52:04.236Z,18.90
2018-11-02T11:53:39.351Z,18.97
2018-11-02T11:55:15.472Z,18.90
2018-11-02T11:56:50.572Z,20.30
2018-11-02T11:58:25.451Z,16.60
2018-11-02T12:00:00.379Z,18.33
2018-11-02T12:01:35.379Z,15.87
2018-11-02T12:03:10.287Z,14.80
2018-11-02T12:04:45.602Z,18.70
2018-11-02T12:06:20.460Z,50.37
2018-11-02T12:07:55.481Z,36.87
2018-11-02T12:09:30.434Z,56.80
2018-11-02T12:11:05.841Z,75.20
2018-11-02T12:12:40.712Z,18.33
2018-11-02T12:14:15.675Z,20.27
2018-11-02T12:15:50.693Z,26.67
2018-11-02T12:17:25.687Z,28.07
2018-11-02T12:19:00.645Z,30.23
2018-11-02T12:20:35.559Z,23.67
2018-11-02T12:22:10.497Z,20.23
2018-11-02T12:23:45.460Z,17.20
2018-11-02T12:25:20.366Z,19.20
2018-11-02T12:26:55.286Z,20.63
2018-11-02T12:28:30.274Z,15.90
2018-11-02T12:30:05.508Z,14.43
2018-11-02T12:31:40.414Z,14.87
2018-11-02T12:33:15.323Z,14.20
2018-11-02T12:34:50.274Z,18.23
2018-11-02T12:36:25.294Z,14.50
2018-11-02T12:38:00.198Z,19.80
2018-11-02T12:39:35.107Z,14.30
2018-11-02T12:41:09.999Z,17.10
2018-11-02T12:42:45.920Z,16.93
2018-11-02T12:44:21.129Z,17.80
2018-11-02T12:45:56.049Z,16.37
2018-11-02T12:47:31.008Z,16.40
2018-11-02T12:49:06.384Z,21.43
2018-11-02T12:50:41.177Z,22.73
2018-11-02T12:52:16.143Z,15.97
2018-11-02T12:53:51.047Z,14.43
2018-11-02T12:55:25.998Z,34.33
2018-11-02T12:57:01.186Z,18.90
2018-11-02T12:58:36.132Z,16.40
2018-11-02T13:00:16.193Z,16.30
2018-11-02T13:01:51.123Z,15.90
2018-11-02T13:03:26.071Z,13.13
2018-11-02T13:05:00.983Z,16.07
2018-11-02T13:06:35.936Z,14.87
2018-11-02T13:08:10.852Z,15.03
2018-11-02T13:09:45.827Z,15.47
2018-11-02T13:11:20.705Z,15.93
2018-11-02T13:12:55.782Z,17.20
2018-11-02T13:14:30.743Z,20.07
2018-11-02T13:16:05.772Z,16.20
2018-11-02T13:17:41.315Z,16.00
2018-11-02T13:19:16.547Z,12.40
2018-11-02T13:20:51.634Z,15.23
2018-11-02T13:22:26.671Z,14.37
2018-11-02T13:24:02.439Z,13.17
2018-11-02T13:25:37.766Z,14.70
2018-11-02T13:27:12.631Z,13.97
2018-11-02T13:28:47.655Z,13.43
2018-11-02T13:30:22.648Z,19.87
2018-11-02T13:31:57.742Z,12.60
2018-11-02T13:33:32.828Z,12.23
2018-11-02T13:35:09.957Z,15.93
2018-11-02T13:36:45.109Z,15.37
2018-11-02T13:38:19.959Z,13.93
2018-11-02T13:39:54.815Z,15.20
2018-11-02T13:41:29.979Z,15.67
2018-11-02T13:43:05.292Z,18.33
2018-11-02T13:44:40.182Z,26.73
2018-11-02T13:46:15.307Z,14.30
2018-11-02T13:47:50.252Z,28.27
2018-11-02T13:49:25.242Z,14.20
2018-11-02T13:51:00.147Z,12.30
2018-11-02T13:52:35.183Z,14.97
2018-11-02T13:54:10.223Z,14.97
2018-11-02T13:55:45.158Z,10.60
2018-11-02T13:57:20.074Z,13.60
2018-11-02T13:58:55.111Z,12.47
2018-11-02T14:00:29.902Z,11.03
2018-11-02T14:02:05.248Z,16.50
2018-11-02T14:03:40.253Z,12.03
2018-11-02T14:05:16.337Z,17.87
2018-11-02T14:06:51.251Z,14.60
2018-11-02T14:08:26.220Z,12.27
2018-11-02T14:10:01.151Z,28.40
2018-11-02T14:11:36.384Z,63.23
2018-11-02T14:13:11.964Z,12.63
2018-11-02T14:14:48.063Z,9.47
2018-11-02T14:16:22.952Z,15.30
2018-11-02T14:17:58.074Z,14.90
2018-11-02T14:19:32.946Z,11.10
2018-11-02T14:21:07.811Z,19.77
2018-11-02T14:22:42.753Z,17.77
2018-11-02T14:24:17.682Z,11.27
2018-11-02T14:25:52.711Z,10.27
2018-11-02T14:27:27.673Z,14.53
2018-11-02T14:29:02.627Z,16.67
2018-11-02T14:30:37.594Z,10.13
2018-11-02T14:32:12.526Z,10.97
2018-11-02T14:33:47.572Z,9.57
2018-11-02T14:35:22.530Z,9.97
2018-11-02T14:36:57.423Z,16.67
2018-11-02T14:38:32.439Z,9.87
2018-11-02T14:40:08.449Z,10.03
2018-11-02T14:41:44.523Z,10.77
2018-11-02T14:43:19.520Z,13.37
2018-11-02T14:44:54.494Z,9.60
2018-11-02T14:46:29.615Z,10.83
2018-11-02T14:48:04.559Z,13.50
2018-11-02T14:49:39.434Z,10.70
2018-11-02T14:51:14.359Z,9.90
2018-11-02T14:52:49.232Z,8.73
2018-11-02T14:54:24.231Z,9.67
2018-11-02T14:55:59.120Z,9.00
2018-11-02T14:57:34.043Z,10.27
2018-11-02T14:59:09.068Z,11.80
2018-11-02T15:00:44.221Z,11.87
2018-11-02T15:02:19.196Z,10.00
2018-11-02T15:03:54.126Z,9.77
2018-11-02T15:05:29.179Z,12.63
2018-11-02T15:07:04.399Z,12.77
2018-11-02T15:08:39.305Z,17.40
2018-11-02T15:10:14.227Z,9.97
2018-11-02T15:11:49.194Z,13.77
2018-11-02T15:13:24.232Z,13.93
2018-11-02T15:14:59.128Z,17.97
2018-11-02T15:16:34.242Z,17.03
2018-11-02T15:18:09.155Z,16.77
2018-11-02T15:19:44.738Z,9.20
2018-11-02T15:21:19.641Z,9.53
2018-11-02T15:22:54.559Z,11.40
2018-11-02T15:24:29.475Z,9.57
2018-11-02T15:26:04.387Z,12.83
2018-11-02T15:27:39.322Z,11.23
2018-11-02T15:29:14.294Z,12.07
2018-11-02T15:30:49.356Z,16.73
2018-11-02T15:32:24.403Z,17.07
2018-11-02T15:33:59.480Z,11.50
2018-11-02T15:35:34.463Z,11.57
2018-11-02T15:37:09.365Z,11.37
2018-11-02T15:38:44.315Z,11.77
2018-11-02T15:40:19.226Z,14.60
2018-11-02T15:41:54.126Z,12.17
2018-11-02T15:43:28.999Z,11.07
2018-11-02T15:45:04.244Z,11.73
2018-11-02T15:46:39.139Z,11.10
2018-11-02T15:48:14.197Z,18.63
2018-11-02T15:49:49.199Z,11.17
2018-11-02T15:51:24.333Z,12.93
2018-11-02T15:52:59.257Z,12.03
2018-11-02T15:54:34.141Z,10.10
2018-11-02T15:56:09.060Z,11.47
2018-11-02T15:57:43.952Z,18.53
2018-11-02T15:59:19.013Z,21.83
2018-11-02T16:00:54.011Z,11.60
2018-11-02T16:02:28.904Z,14.33
2018-11-02T16:04:03.944Z,12.40
2018-11-02T16:05:38.861Z,12.20
2018-11-02T16:07:13.828Z,13.70
2018-11-02T16:08:48.705Z,12.37
2018-11-02T16:10:23.690Z,11.97
2018-11-02T16:11:58.649Z,10.80
2018-11-02T16:13:33.603Z,9.93
2018-11-02T16:15:09.178Z,13.07
2018-11-02T16:16:44.071Z,10.20
2018-11-02T16:18:18.973Z,11.70
2018-11-02T16:19:53.903Z,12.43
2018-11-02T16:21:28.786Z,13.30
2018-11-02T16:23:03.683Z,13.17
2018-11-02T16:24:38.614Z,12.87
2018-11-02T16:26:13.498Z,12.67
2018-11-02T16:27:48.451Z,15.27
2018-11-02T16:29:23.440Z,14.10
2018-11-02T16:30:58.379Z,12.60
2018-11-02T16:32:33.331Z,18.43
2018-11-02T16:34:08.332Z,14.93
2018-11-02T16:35:43.201Z,16.93
2018-11-02T16:37:18.178Z,13.90
2018-11-02T16:38:53.214Z,16.27
2018-11-02T16:40:28.127Z,15.13
2018-11-02T16:42:03.039Z,14.60
2018-11-02T16:43:38.108Z,15.87
2018-11-02T16:45:13.811Z,18.50
2018-11-02T16:46:48.769Z,16.83
2018-11-02T16:48:23.668Z,15.33
2018-11-02T16:49:58.624Z,23.70
2018-11-02T16:51:33.544Z,17.70
2018-11-02T16:53:08.514Z,16.27
2018-11-02T16:54:43.579Z,17.73
2018-11-02T16:56:18.347Z,24.53
2018-11-02T16:57:53.430Z,17.50
2018-11-02T16:59:28.394Z,17.00
2018-11-02T17:01:03.305Z,15.77
2018-11-02T17:02:38.342Z,15.27
2018-11-02T17:04:13.270Z,17.70
2018-11-02T17:05:48.317Z,21.20
2018-11-02T17:07:23.185Z,18.83
2018-11-02T17:08:58.065Z,14.77
2018-11-02T17:10:33.009Z,16.47
2018-11-02T17:12:07.897Z,16.80
2018-11-02T17:13:42.850Z,15.00
2018-11-02T17:15:17.795Z,18.70
2018-11-02T17:16:52.741Z,19.10
2018-11-02T17:18:27.737Z,19.00
2018-11-02T17:20:07.589Z,16.23
2018-11-02T17:21:42.645Z,15.33
2018-11-02T17:23:17.494Z,18.87
2018-11-02T17:24:52.559Z,19.50
2018-11-02T17:26:27.473Z,17.37
2018-11-02T17:28:02.395Z,18.50
2018-11-02T17:29:37.303Z,20.57
2018-11-02T17:31:12.211Z,16.77
2018-11-02T17:32:47.132Z,19.47
2018-11-02T17:34:22.017Z,17.53
2018-11-02T17:35:57.092Z,21.43
2018-11-02T17:37:32.012Z,23.07
2018-11-02T17:39:09.461Z,20.70
2018-11-02T17:40:44.409Z,23.80
2018-11-02T17:42:19.473Z,22.50
2018-11-02T17:43:54.333Z,32.27
2018-11-02T17:45:29.303Z,26.63
2018-11-02T17:47:04.229Z,24.17
2018-11-02T17:48:39.107Z,20.37
2018-11-02T17:50:14.887Z,20.30
2018-11-02T17:51:49.922Z,22.93
2018-11-02T17:53:24.873Z,23.20
2018-11-02T17:54:59.740Z,21.03
2018-11-02T17:56:34.655Z,23.10
2018-11-02T17:58:09.557Z,24.03
2018-11-02T17:59:44.513Z,19.70
2018-11-02T18:01:19.514Z,20.47
2018-11-02T18:02:55.424Z,20.87
2018-11-02T18:04:30.270Z,23.03
2018-11-02T18:06:05.247Z,20.27
2018-11-02T18:07:40.062Z,23.83
2018-11-02T18:09:14.950Z,23.17
2018-11-02T18:10:49.959Z,23.33
2018-11-02T18:12:24.986Z,26.20
2018-11-02T18:13:59.865Z,21.20
2018-11-02T18:15:34.845Z,26.90
2018-11-02T18:17:09.756Z,23.70
2018-11-02T18:18:44.690Z,22.67
2018-11-02T18:20:19.586Z,22.73
2018-11-02T18:21:57.421Z,29.90
2018-11-02T18:23:33.053Z,21.53
2018-11-02T18:25:12.438Z,27.60
2018-11-02T18:26:47.710Z,24.97
2018-11-02T18:28:22.830Z,25.33
2018-11-02T18:29:57.850Z,28.07
2018-11-02T18:31:32.759Z,26.47
2018-11-02T18:33:07.887Z,25.77
2018-11-02T18:34:42.978Z,31.37
2018-11-02T18:36:24.501Z,29.13
2018-11-02T18:37:59.435Z,28.00
2018-11-02T18:39:34.302Z,26.17
2018-11-02T18:41:09.201Z,27.83
2018-11-02T18:42:44.537Z,24.87
2018-11-02T18:44:19.458Z,23.13
2018-11-02T18:45:54.404Z,27.57
2018-11-02T18:47:34.785Z,27.00
2018-11-02T18:49:11.255Z,28.60
2018-11-02T18:50:46.187Z,30.67
2018-11-02T18:52:21.226Z,25.93
2018-11-02T18:53:56.095Z,27.97
2018-11-02T18:55:31.009Z,27.97
2018-11-02T18:57:06.243Z,28.90
2018-11-02T18:58:41.143Z,24.30
2018-11-02T19:00:16.348Z,24.47
2018-11-02T19:03:35.859Z,26.60
2018-11-02T19:05:14.790Z,23.53
2018-11-02T19:06:49.819Z,27.27
2018-11-02T19:08:24.722Z,26.33
2018-11-02T19:09:59.686Z,24.80
2018-11-02T19:11:34.623Z,22.67
2018-11-02T19:13:09.645Z,29.50
2018-11-02T19:14:44.548Z,25.40
2018-11-02T19:16:19.866Z,27.37
2018-11-02T19:17:55.613Z,28.07
2018-11-02T19:19:30.605Z,21.27
2018-11-02T19:21:05.741Z,27.77
2018-11-02T19:22:40.671Z,25.80
2018-11-02T19:24:15.638Z,24.17
2018-11-02T19:25:50.746Z,24.30
2018-11-02T19:27:25.791Z,23.33
2018-11-02T19:29:00.707Z,24.00
2018-11-02T19:30:35.701Z,21.00
2018-11-02T19:32:10.688Z,22.17
2018-11-02T19:33:45.618Z,25.23
2018-11-02T19:35:20.700Z,24.33
2018-11-02T19:36:55.583Z,25.30
2018-11-02T19:38:30.597Z,21.80
2018-11-02T19:40:07.356Z,25.33
2018-11-02T19:41:42.270Z,20.93
2018-11-02T19:43:17.180Z,20.97
2018-11-02T19:44:52.064Z,24.97
2018-11-02T19:46:27.106Z,23.60
2018-11-02T19:48:03.363Z,24.07
2018-11-02T19:49:38.256Z,21.63
2018-11-02T19:51:13.153Z,20.87
2018-11-02T19:52:48.055Z,24.70
2018-11-02T19:54:22.953Z,24.43
2018-11-02T19:55:57.962Z,23.10
2018-11-02T19:57:32.822Z,22.97
2018-11-02T19:59:07.672Z,24.17
2018-11-02T20:00:42.706Z,26.37
2018-11-02T20:02:18.005Z,25.87
2018-11-02T20:03:53.125Z,30.60
2018-11-02T20:05:28.075Z,30.17
2018-11-02T20:07:03.040Z,34.47
2018-11-02T20:08:38.324Z,30.77
2018-11-02T20:10:14.044Z,31.07
2018-11-02T20:11:53.635Z,31.83
2018-11-02T20:13:28.683Z,33.10
2018-11-02T20:15:05.882Z,34.57
2018-11-02T20:16:40.751Z,28.00
2018-11-02T20:18:15.722Z,32.03
2018-11-02T20:19:50.823Z,33.97
2018-11-02T20:21:28.675Z,31.07
2018-11-02T20:23:03.650Z,33.67
2018-11-02T20:24:38.670Z,32.23
2018-11-02T20:26:13.650Z,33.23
2018-11-02T20:27:48.925Z,36.20
2018-11-02T20:29:23.839Z,32.90